Time;durP1;ratioP1;P1;durP2;ratioP2;P2;SDS_P1;SDS_P2;PMS_P1;PMS_P2;Temp;Humidity;BMP_temperature;BMP_pressure;BME280_temperature;BME280_humidity;BME280_pressure;Samples;Min_cycle;Max_cycle;Signal;HPM_P1;HPM_P2
2021/12/17 00:04:57;;;;;;;;;;;;;;;2.05;77.70;95970.53;5117582;27;1981;-49
2021/12/17 00:07:24;;;;;;;;;;;;;;;2.04;77.08;95968.84;5117700;28;973;-49
2021/12/17 00:09:51;;;;;;;;;;;;;;;1.79;77.61;95977.31;5117508;28;1033;-49
2021/12/17 00:12:18;;;;;;;;;;;;;;;1.73;78.19;95981.16;5117726;28;1000;-49
2021/12/17 00:14:47;;;;;;;;;;;;;;;1.79;78.34;95973.84;5117662;28;1009;-49
2021/12/17 00:17:18;;;;;;;;;;;;;;;1.81;78.42;95983.34;5117551;28;1008;-49
2021/12/17 00:52:20;;;;;;;;;;;;;;;1.93;77.46;95987.06;5116782;28;1055;-49
2021/12/17 00:54:46;;;;;;;;;;;;;;;1.95;76.49;95979.91;5116771;28;1166;-49
2021/12/17 00:57:15;;;;;;;;;;;;;;;1.72;77.58;95981.22;5116607;28;989;-49
2021/12/17 00:59:43;;;;;;;;;;;;;;;1.75;77.87;95981.91;5116792;28;973;-49
2021/12/17 01:02:10;;;;;;;;;;;;;;;1.88;77.64;95973.31;5116694;27;964;-49
2021/12/17 01:04:39;;;;;;;;;;;;;;;1.99;77.86;95983.22;5116454;28;1983;-49
2021/12/17 01:07:05;;;;;;;;;;;;;;;1.91;78.61;95973.97;5116403;28;1064;-49
2021/12/17 01:09:31;;;;;;;;;;;;;;;1.89;78.41;95975.00;5116465;28;1056;-49
2021/12/17 01:11:58;;;;;;;;;;;;;;;1.89;78.09;95972.34;5116792;28;965;-49
2021/12/17 01:14:25;;;;;;;;;;;;;;;1.95;77.66;95964.97;5116512;28;981;-49
2021/12/17 01:16:53;;;;;;;;;;;;;;;2.12;77.24;95963.09;5115959;28;1049;-49
2021/12/17 01:19:31;;;;;;;;;;;;;;;2.00;77.32;95962.03;5116249;28;977;-49
2021/12/17 01:35:28;;;;;;;;;;;;;;;1.63;78.68;95942.19;5115839;28;1966;-49
2021/12/17 01:39:00;;;;;;;;;;;;;;;1.51;78.35;95943.75;5116082;28;1025;-49
2021/12/17 01:43:33;;;;;;;;;;;;;;;1.09;79.47;95929.41;5115839;28;985;-49
2021/12/17 01:45:59;;;;;;;;;;;;;;;0.93;80.18;95918.84;5115425;28;1905;-49
2021/12/17 01:48:32;;;;;;;;;;;;;;;0.92;80.46;95928.53;5115304;28;1033;-49
2021/12/17 01:56:51;;;;;;;;;;;;;;;1.47;78.71;95935.16;5115240;28;1044;-49
2021/12/17 02:01:47;;;;;;;;;;;;;;;1.73;77.37;95930.22;5115092;28;1096;-49
2021/12/17 02:04:14;;;;;;;;;;;;;;;1.62;77.96;95922.06;5115448;28;1902;-49
2021/12/17 02:06:40;;;;;;;;;;;;;;;1.64;77.31;95923.66;5115473;28;1044;-49
2021/12/17 02:09:39;;;;;;;;;;;;;;;1.55;76.81;95926.81;5115165;28;961;-49
2021/12/17 02:29:01;;;;;;;;;;;;;;;0.90;80.29;95940.09;5114738;28;1165;-49
2021/12/17 02:31:30;;;;;;;;;;;;;;;1.00;80.14;95932.53;5114743;28;994;-49
2021/12/17 02:34:00;;;;;;;;;;;;;;;1.17;79.52;95924.56;5115280;28;1056;-49
2021/12/17 02:36:30;;;;;;;;;;;;;;;1.17;78.83;95924.56;5114646;28;1053;-49
2021/12/17 02:39:06;;;;;;;;;;;;;;;0.98;79.36;95924.72;5114420;28;1104;-49
2021/12/17 02:47:04;;;;;;;;;;;;;;;0.66;79.31;95929.09;5114635;28;997;-49
2021/12/17 02:49:30;;;;;;;;;;;;;;;0.54;79.35;95933.22;5114739;28;984;-49
2021/12/17 02:51:57;;;;;;;;;;;;;;;0.44;79.94;95926.72;5114727;28;985;-49
2021/12/17 02:54:24;;;;;;;;;;;;;;;0.47;80.44;95927.41;5114611;28;1044;-49
2021/12/17 02:56:50;;;;;;;;;;;;;;;0.58;80.26;95927.69;5114342;28;1084;-49
2021/12/17 02:59:16;;;;;;;;;;;;;;;0.63;80.11;95911.69;5114282;28;1047;-49
2021/12/17 03:01:44;;;;;;;;;;;;;;;0.69;79.10;95918.41;5114170;28;1040;-49
2021/12/17 03:04:11;;;;;;;;;;;;;;;0.71;79.08;95917.38;5114461;28;1992;-49
2021/12/17 03:06:40;;;;;;;;;;;;;;;0.50;79.57;95921.16;5114273;28;1050;-49
2021/12/17 03:09:06;;;;;;;;;;;;;;;0.35;79.92;95928.91;5114124;28;1148;-49
2021/12/17 03:11:32;;;;;;;;;;;;;;;0.36;80.41;95909.59;5114465;28;1056;-49
2021/12/17 03:13:58;;;;;;;;;;;;;;;0.61;80.08;95921.44;5114129;28;965;-49
2021/12/17 03:24:05;;;;;;;;;;;;;;;0.31;79.39;95937.06;5114262;28;1979;-49
2021/12/17 03:26:31;;;;;;;;;;;;;;;0.36;79.39;95935.88;5114245;28;1044;-49
2021/12/17 03:29:06;;;;;;;;;;;;;;;0.22;79.71;95937.53;5113656;28;1228;-49
2021/12/17 03:31:33;;;;;;;;;;;;;;;0.03;80.46;95935.84;5114157;28;1186;-49
2021/12/17 03:34:19;;;;;;;;;;;;;;;-0.01;80.75;95934.28;5113929;28;1092;-49
2021/12/17 03:36:53;;;;;;;;;;;;;;;-0.04;80.62;95927.41;5113926;28;1087;-49
2021/12/17 03:39:26;;;;;;;;;;;;;;;0.04;81.18;95934.03;5113770;28;1170;-48
2021/12/17 03:41:52;;;;;;;;;;;;;;;0.36;80.69;95919.22;5113791;28;1104;-49
2021/12/17 03:44:20;;;;;;;;;;;;;;;0.49;79.86;95916.81;5113640;28;1906;-49
2021/12/17 03:46:47;;;;;;;;;;;;;;;0.43;79.68;95917.16;5114049;28;968;-49
2021/12/17 03:49:15;;;;;;;;;;;;;;;0.56;79.49;95921.66;5114068;28;1032;-49
2021/12/17 03:51:51;;;;;;;;;;;;;;;0.64;80.09;95918.63;5114033;28;1024;-49
2021/12/17 03:54:17;;;;;;;;;;;;;;;0.75;80.21;95918.06;5113927;28;984;-49
2021/12/17 03:56:43;;;;;;;;;;;;;;;0.89;79.50;95920.81;5114045;28;1047;-49
2021/12/17 03:59:10;;;;;;;;;;;;;;;1.05;79.26;95920.81;5113819;28;969;-49
2021/12/17 04:01:38;;;;;;;;;;;;;;;1.01;78.93;95926.34;5113950;28;1055;-49
2021/12/17 04:04:04;;;;;;;;;;;;;;;0.96;79.13;95927.41;5113526;28;1989;-48
2021/12/17 04:06:30;;;;;;;;;;;;;;;0.89;79.74;95922.56;5113856;28;1139;-49
2021/12/17 04:08:56;;;;;;;;;;;;;;;0.95;79.13;95923.09;5113849;28;977;-49
2021/12/17 04:11:22;;;;;;;;;;;;;;;1.02;79.95;95926.25;5113901;28;1008;-49
2021/12/17 04:13:56;;;;;;;;;;;;;;;1.14;80.31;95920.31;5113754;28;1008;-49
2021/12/17 04:16:26;;;;;;;;;;;;;;;1.27;80.09;95920.47;5113494;28;1024;-49
2021/12/17 04:18:53;;;;;;;;;;;;;;;1.31;80.13;95927.28;5116036;28;965;-49
2021/12/17 04:21:19;;;;;;;;;;;;;;;1.33;79.50;95921.94;5117501;28;1044;-49
2021/12/17 04:23:47;;;;;;;;;;;;;;;1.26;79.78;95923.19;5117472;28;988;-49
2021/12/17 04:26:15;;;;;;;;;;;;;;;1.39;79.31;95920.72;5117372;28;1977;-49
2021/12/17 04:28:47;;;;;;;;;;;;;;;1.48;79.82;95918.44;5116927;28;921;-49
2021/12/17 04:31:15;;;;;;;;;;;;;;;1.43;80.45;95909.91;5117298;28;988;-49
2021/12/17 04:33:42;;;;;;;;;;;;;;;1.53;79.99;95916.34;5117045;28;1025;-49
2021/12/17 04:36:11;;;;;;;;;;;;;;;1.56;79.64;95918.84;5117164;28;1050;-49
2021/12/17 04:38:37;;;;;;;;;;;;;;;1.54;80.06;95911.97;5117047;28;1237;-49
2021/12/17 04:41:37;;;;;;;;;;;;;;;1.59;80.04;95915.16;5116776;28;1037;-49
2021/12/17 04:46:43;;;;;;;;;;;;;;;1.80;78.99;95910.44;5116897;28;1047;-49
2021/12/17 04:57:37;;;;;;;;;;;;;;;1.64;80.33;95921.03;5116467;28;989;-49
2021/12/17 05:00:07;;;;;;;;;;;;;;;1.68;80.39;95919.06;5116733;28;1062;-49
2021/12/17 05:02:37;;;;;;;;;;;;;;;1.72;81.10;95920.59;5116425;28;921;-49
2021/12/17 05:05:08;;;;;;;;;;;;;;;1.68;81.13;95912.00;5116602;28;1914;-49
2021/12/17 05:07:36;;;;;;;;;;;;;;;1.63;81.72;95913.19;5116502;28;1047;-49
2021/12/17 05:20:51;;;;;;;;;;;;;;;1.43;81.96;95912.56;5116276;28;977;-49
2021/12/17 05:23:24;;;;;;;;;;;;;;;1.47;81.11;95902.69;5116134;28;981;-49
2021/12/17 05:25:51;;;;;;;;;;;;;;;1.41;80.89;95905.69;5116188;28;1968;-49
2021/12/17 05:28:17;;;;;;;;;;;;;;;1.23;81.24;95895.22;5116187;28;997;-49
2021/12/17 05:30:48;;;;;;;;;;;;;;;1.26;81.45;95892.44;5115907;28;1225;-49
2021/12/17 05:33:15;;;;;;;;;;;;;;;1.16;81.71;95896.53;5115902;28;1072;-49
2021/12/17 05:35:41;;;;;;;;;;;;;;;1.00;82.73;95890.41;5116123;28;1035;-49
2021/12/17 05:38:08;;;;;;;;;;;;;;;1.04;82.79;95897.19;5115774;28;1028;-49
2021/12/17 05:40:34;;;;;;;;;;;;;;;1.03;83.35;95900.78;5115480;28;1710;-49
2021/12/17 05:43:02;;;;;;;;;;;;;;;1.11;82.92;95891.50;5115600;28;1049;-49
2021/12/17 05:48:01;;;;;;;;;;;;;;;1.19;81.59;95879.69;5115814;28;1883;-49
2021/12/17 05:50:27;;;;;;;;;;;;;;;1.22;81.58;95885.63;5114380;28;1093;-49
2021/12/17 05:52:53;;;;;;;;;;;;;;;1.24;81.00;95882.91;5115386;28;1029;-49
2021/12/17 05:55:19;;;;;;;;;;;;;;;1.19;81.55;95883.16;5115641;28;984;-49
2021/12/17 05:57:45;;;;;;;;;;;;;;;1.16;82.06;95880.72;5115502;28;1103;-49
2021/12/17 06:00:12;;;;;;;;;;;;;;;1.17;81.25;95882.41;5115564;28;1016;-49
2021/12/17 06:02:38;;;;;;;;;;;;;;;1.25;81.22;95885.47;5115633;28;1028;-49
2021/12/17 06:05:04;;;;;;;;;;;;;;;1.26;80.43;95879.25;5115111;28;1991;-49
2021/12/17 06:07:30;;;;;;;;;;;;;;;1.20;80.95;95881.41;5115467;28;972;-49
2021/12/17 06:10:03;;;;;;;;;;;;;;;1.18;81.23;95873.56;5115390;28;1036;-49
2021/12/17 06:12:29;;;;;;;;;;;;;;;1.18;81.80;95863.03;5115452;28;1039;-49
2021/12/17 06:14:55;;;;;;;;;;;;;;;1.24;81.92;95873.22;5115161;28;1132;-49
2021/12/17 06:17:21;;;;;;;;;;;;;;;1.29;82.14;95878.22;5115236;28;1064;-49
2021/12/17 06:19:47;;;;;;;;;;;;;;;1.33;81.55;95883.25;5115288;28;1035;-49
2021/12/17 06:22:15;;;;;;;;;;;;;;;1.32;81.93;95886.81;5115252;28;980;-49
2021/12/17 06:24:44;;;;;;;;;;;;;;;1.29;80.90;95896.66;5115003;28;1910;-49
2021/12/17 06:27:11;;;;;;;;;;;;;;;1.31;81.87;95892.16;5115164;28;1051;-49
2021/12/17 06:29:37;;;;;;;;;;;;;;;1.40;81.48;95893.44;5114812;28;1141;-49
2021/12/17 06:32:04;;;;;;;;;;;;;;;1.53;80.91;95894.44;5115049;28;1032;-48
2021/12/17 06:34:30;;;;;;;;;;;;;;;1.54;81.35;95898.78;5114960;28;1044;-48
2021/12/17 06:36:56;;;;;;;;;;;;;;;1.50;81.43;95900.75;5113481;28;1049;-49
2021/12/17 06:43:03;;;;;;;;;;;;;;;1.67;81.26;95904.19;4612255;28;1978;-49
2021/12/17 06:45:54;;;;;;;;;;;;;;;1.65;81.12;95901.66;5114686;28;1996;-49
2021/12/17 06:48:24;;;;;;;;;;;;;;;1.74;80.96;95892.34;5114836;28;1027;-49
2021/12/17 06:59:21;;;;;;;;;;;;;;;1.49;81.60;95906.94;5094546;28;1181;-49
2021/12/17 07:17:21;;;;;;;;;;;;;;;1.92;81.73;95911.53;5114249;28;1055;-49
2021/12/17 07:33:12;;;;;;;;;;;;;;;2.04;81.63;95892.31;5114298;28;1000;-49
2021/12/17 07:35:46;;;;;;;;;;;;;;;2.10;82.09;95893.75;5114076;28;1031;-49
2021/12/17 07:40:57;;;;;;;;;;;;;;;2.35;81.21;95890.50;5113961;28;977;-49
2021/12/17 07:43:59;;;;;;;;;;;;;;;2.43;80.59;95882.09;5113603;28;1353;-49
2021/12/17 07:46:16;;;;;;;;;;;;;;;2.46;80.74;95887.22;5111674;28;1910;-49
2021/12/17 07:48:42;;;;;;;;;;;;;;;2.46;80.60;95897.75;5114112;28;1043;-49
2021/12/17 07:51:09;;;;;;;;;;;;;;;2.49;80.60;95889.66;5113976;28;1047;-48
2021/12/17 07:53:35;;;;;;;;;;;;;;;2.48;80.63;95890.59;5115637;28;1107;-48
2021/12/17 07:56:03;;;;;;;;;;;;;;;2.40;80.74;95884.94;5118067;28;1035;-49
2021/12/17 07:58:29;;;;;;;;;;;;;;;2.24;81.92;95885.00;5117954;28;1042;-48
2021/12/17 08:00:56;;;;;;;;;;;;;;;2.31;81.84;95887.19;5117943;28;1055;-49
2021/12/17 08:03:22;;;;;;;;;;;;;;;2.48;80.86;95872.97;5117886;28;964;-49
2021/12/17 08:05:49;;;;;;;;;;;;;;;2.40;81.56;95884.94;5117575;28;1914;-49
2021/12/17 08:08:15;;;;;;;;;;;;;;;2.44;82.11;95883.81;5117863;28;1161;-49
2021/12/17 08:10:41;;;;;;;;;;;;;;;2.50;81.66;95889.59;5117510;28;1000;-48
2021/12/17 08:13:13;;;;;;;;;;;;;;;2.57;81.10;95889.19;5117645;28;968;-48
2021/12/17 08:15:47;;;;;;;;;;;;;;;2.51;81.22;95885.97;5117756;28;1027;-49
2021/12/17 08:28:25;;;;;;;;;;;;;;;2.60;80.33;95891.63;5117126;28;1029;-49
2021/12/17 08:30:51;;;;;;;;;;;;;;;2.49;81.24;95895.78;5117252;28;1295;-49
2021/12/17 08:33:20;;;;;;;;;;;;;;;2.45;81.02;95896.94;5117240;28;1071;-49
2021/12/17 08:35:46;;;;;;;;;;;;;;;2.58;81.15;95885.59;5117003;28;1027;-49
2021/12/17 08:38:12;;;;;;;;;;;;;;;2.81;80.27;95895.59;5117175;28;1036;-49
2021/12/17 08:40:38;;;;;;;;;;;;;;;3.11;79.32;95889.31;5116853;28;1975;-48
2021/12/17 08:43:05;;;;;;;;;;;;;;;3.22;78.09;95893.94;5116491;28;1389;-48
2021/12/17 08:45:31;;;;;;;;;;;;;;;3.49;78.21;95894.81;5116941;28;1918;-49
2021/12/17 08:47:57;;;;;;;;;;;;;;;3.87;77.14;95891.44;5115783;28;1048;-49
2021/12/17 08:50:24;;;;;;;;;;;;;;;3.98;75.92;95887.22;5117004;28;968;-48
2021/12/17 08:52:50;;;;;;;;;;;;;;;4.32;74.72;95884.94;5116923;28;976;-49
2021/12/17 08:55:16;;;;;;;;;;;;;;;4.70;73.85;95871.69;5116807;28;1194;-48
2021/12/17 08:57:42;;;;;;;;;;;;;;;5.13;71.27;95866.00;5116774;28;976;-48
2021/12/17 09:00:09;;;;;;;;;;;;;;;5.05;70.47;95849.81;5116511;28;1180;-48
2021/12/17 09:02:37;;;;;;;;;;;;;;;4.99;70.41;95845.78;5115271;28;1052;-48
2021/12/17 09:05:04;;;;;;;;;;;;;;;5.12;70.26;95850.19;5115869;28;1918;-49
2021/12/17 09:07:30;;;;;;;;;;;;;;;4.63;71.51;95842.16;5116640;28;981;-49
2021/12/17 09:09:56;;;;;;;;;;;;;;;4.65;72.90;95837.59;5116641;27;1040;-48
2021/12/17 09:12:23;;;;;;;;;;;;;;;4.59;72.71;95832.72;5116099;27;1064;-49
2021/12/17 09:14:49;;;;;;;;;;;;;;;4.55;73.45;95827.72;5116589;28;1123;-49
2021/12/17 09:17:15;;;;;;;;;;;;;;;4.65;72.58;95823.50;5116053;28;1033;-49
2021/12/17 09:19:41;;;;;;;;;;;;;;;4.76;73.24;95813.00;5116101;28;1047;-49
2021/12/17 09:22:07;;;;;;;;;;;;;;;4.58;73.94;95816.94;5115200;28;1115;-49
2021/12/17 09:24:33;;;;;;;;;;;;;;;4.57;74.60;95809.94;5116213;28;2001;-48
2021/12/17 09:26:59;;;;;;;;;;;;;;;4.77;74.29;95814.66;5116053;28;1048;-48
2021/12/17 09:29:25;;;;;;;;;;;;;;;4.87;73.10;95805.09;5115871;28;1201;-49
2021/12/17 09:31:51;;;;;;;;;;;;;;;4.91;73.46;95813.66;5116047;28;1039;-49
2021/12/17 09:34:17;;;;;;;;;;;;;;;4.74;73.82;95801.63;5115785;28;1148;-48
2021/12/17 09:36:43;;;;;;;;;;;;;;;4.88;74.18;95796.19;5116107;28;1052;-48
2021/12/17 09:39:09;;;;;;;;;;;;;;;4.83;74.30;95790.38;5116081;28;1055;-47
2021/12/17 09:41:36;;;;;;;;;;;;;;;4.72;72.94;95785.00;5115851;28;1185;-49
2021/12/17 09:44:02;;;;;;;;;;;;;;;4.92;73.74;95775.63;5116056;27;1063;-49
2021/12/17 09:46:28;;;;;;;;;;;;;;;5.74;71.20;95769.59;5115763;28;1902;-48
2021/12/17 09:48:54;;;;;;;;;;;;;;;6.64;68.68;95767.09;5115566;28;1092;-49
2021/12/17 09:51:20;;;;;;;;;;;;;;;12.34;52.63;95755.63;5115881;28;1057;-48
2021/12/17 09:53:47;;;;;;;;;;;;;;;13.41;48.13;95757.88;5115760;28;1032;-49
2021/12/17 09:56:13;;;;;;;;;;;;;;;14.34;45.14;95761.28;5115734;28;1063;-49
2021/12/17 09:58:39;;;;;;;;;;;;;;;10.57;52.95;95746.25;5114421;28;1057;-49
2021/12/17 10:01:05;;;;;;;;;;;;;;;8.22;61.41;95750.50;5115380;28;985;-48
2021/12/17 10:03:31;;;;;;;;;;;;;;;7.11;65.29;95754.41;5115648;28;940;-48
2021/12/17 10:05:57;;;;;;;;;;;;;;;6.42;68.79;95746.69;5115114;28;1926;-49
2021/12/17 10:08:24;;;;;;;;;;;;;;;6.03;70.27;95746.16;5115559;28;973;-48
2021/12/17 10:10:56;;;;;;;;;;;;;;;5.91;70.66;95745.25;5115105;28;1037;-48
2021/12/17 10:13:23;;;;;;;;;;;;;;;5.59;72.35;95751.22;5115241;28;942;-48
2021/12/17 10:15:50;;;;;;;;;;;;;;;5.48;73.21;95748.53;5114166;28;1912;-49
2021/12/17 10:18:17;;;;;;;;;;;;;;;5.34;73.71;95741.59;5114923;28;1041;-49
2021/12/17 10:21:03;;;;;;;;;;;;;;;5.41;73.48;95737.53;5115013;28;1120;-49
2021/12/17 10:23:30;;;;;;;;;;;;;;;5.70;72.29;95726.53;5114832;28;1228;-48
2021/12/17 10:25:56;;;;;;;;;;;;;;;5.71;72.94;95730.03;5114749;28;2048;-49
2021/12/17 10:28:22;;;;;;;;;;;;;;;5.74;72.49;95729.78;5115168;28;1008;-48
2021/12/17 10:30:49;;;;;;;;;;;;;;;5.77;72.44;95727.75;5114522;28;1707;-48
2021/12/17 10:33:24;;;;;;;;;;;;;;;5.61;73.35;95714.78;5115033;28;948;-48
2021/12/17 10:35:51;;;;;;;;;;;;;;;5.32;74.67;95709.06;5115074;28;973;-48
2021/12/17 10:38:23;;;;;;;;;;;;;;;5.30;73.75;95710.16;5114837;28;1064;-48
2021/12/17 10:41:05;;;;;;;;;;;;;;;5.21;75.06;95711.66;5114694;28;1071;-49
2021/12/17 10:46:20;;;;;;;;;;;;;;;5.08;75.89;95699.34;5114710;28;1987;-49
2021/12/17 10:51:24;;;;;;;;;;;;;;;5.55;74.31;95687.91;5114365;28;1105;-49
2021/12/17 10:53:54;;;;;;;;;;;;;;;5.50;73.31;95672.31;5114473;28;985;-49
2021/12/17 10:56:24;;;;;;;;;;;;;;;5.71;73.64;95669.00;5114507;28;1011;-49
2021/12/17 10:58:58;;;;;;;;;;;;;;;5.85;73.09;95652.84;5114387;28;1033;-49
2021/12/17 11:01:36;;;;;;;;;;;;;;;6.01;72.12;95653.38;5114332;28;1884;-49
2021/12/17 11:04:21;;;;;;;;;;;;;;;6.27;71.81;95654.94;5114554;28;1037;-48
2021/12/17 11:06:50;;;;;;;;;;;;;;;6.38;71.80;95652.25;5114425;28;1051;-48
2021/12/17 11:09:35;;;;;;;;;;;;;;;6.37;72.48;95629.31;5114377;28;1048;-48
2021/12/17 11:12:12;;;;;;;;;;;;;;;6.11;73.97;95631.41;5114053;28;1109;-48
2021/12/17 11:14:38;;;;;;;;;;;;;;;6.20;73.64;95612.06;5112793;28;1029;-48
2021/12/17 11:17:04;;;;;;;;;;;;;;;6.17;74.38;95612.34;5114428;28;996;-48
2021/12/17 11:19:30;;;;;;;;;;;;;;;6.24;74.29;95613.50;5114333;28;1206;-48
2021/12/17 11:21:57;;;;;;;;;;;;;;;6.94;70.82;95608.72;5114269;28;1064;-48
2021/12/17 11:24:23;;;;;;;;;;;;;;;6.99;68.96;95598.56;5114195;28;2038;-48
2021/12/17 11:26:50;;;;;;;;;;;;;;;6.86;69.93;95604.06;5115251;28;977;-48
2021/12/17 11:29:16;;;;;;;;;;;;;;;6.75;69.61;95612.06;5120634;27;1267;-48
2021/12/17 11:31:43;;;;;;;;;;;;;;;7.84;67.27;95594.88;5120719;27;1053;-48
2021/12/17 11:34:09;;;;;;;;;;;;;;;8.35;66.30;95593.94;5121083;28;981;-48
2021/12/17 11:36:35;;;;;;;;;;;;;;;7.97;67.27;95594.66;5121033;27;961;-49
2021/12/17 11:39:04;;;;;;;;;;;;;;;7.32;67.10;95586.91;5121035;28;1032;-48
2021/12/17 11:41:44;;;;;;;;;;;;;;;6.79;69.70;95597.53;5120670;28;1103;-49
2021/12/17 11:44:12;;;;;;;;;;;;;;;6.24;70.61;95587.81;5120949;27;1009;-49
2021/12/17 11:46:39;;;;;;;;;;;;;;;5.99;71.40;95599.53;5120857;27;1985;-48
2021/12/17 11:49:09;;;;;;;;;;;;;;;6.08;72.44;95597.97;5120988;27;996;-49
2021/12/17 11:51:36;;;;;;;;;;;;;;;5.95;72.36;95595.44;5120983;27;992;-48
2021/12/17 11:54:15;;;;;;;;;;;;;;;6.00;72.42;95595.94;5120594;27;1056;-48
2021/12/17 11:56:45;;;;;;;;;;;;;;;5.83;72.62;95588.44;5120339;27;1072;-49
2021/12/17 11:59:24;;;;;;;;;;;;;;;5.75;71.58;95574.91;5120762;27;1055;-48
2021/12/17 12:01:50;;;;;;;;;;;;;;;5.71;71.29;95578.78;5120799;28;984;-48
2021/12/17 12:04:22;;;;;;;;;;;;;;;5.66;72.56;95587.13;5120574;27;1909;-48
2021/12/17 12:07:01;;;;;;;;;;;;;;;5.74;73.42;95590.00;5120393;28;1100;-48
2021/12/17 12:10:00;;;;;;;;;;;;;;;5.59;74.67;95578.78;5120653;27;1210;-48
2021/12/17 12:12:30;;;;;;;;;;;;;;;5.74;74.21;95570.59;5085989;27;1297;-48
2021/12/17 12:15:15;;;;;;;;;;;;;;;5.71;74.20;95578.78;5120699;27;1048;-48
2021/12/17 12:18:02;;;;;;;;;;;;;;;5.47;74.73;95574.44;5120353;28;1029;-48
2021/12/17 12:23:12;;;;;;;;;;;;;;;5.58;75.42;95569.16;5120386;28;1061;-49
2021/12/17 12:25:38;;;;;;;;;;;;;;;5.61;75.35;95566.25;5120267;28;1975;-49
2021/12/17 12:28:04;;;;;;;;;;;;;;;5.54;75.66;95557.09;5120490;28;981;-48
2021/12/17 12:30:38;;;;;;;;;;;;;;;5.43;75.60;95555.28;5120074;28;1793;-49
2021/12/17 12:33:04;;;;;;;;;;;;;;;5.54;75.59;95567.72;5120245;27;1053;-49
2021/12/17 12:35:31;;;;;;;;;;;;;;;5.43;75.92;95549.97;5120222;27;1053;-49
2021/12/17 12:38:17;;;;;;;;;;;;;;;5.27;76.23;95547.69;5120394;27;961;-48
2021/12/17 12:40:50;;;;;;;;;;;;;;;5.30;76.55;95559.84;5116779;28;1033;-49
2021/12/17 12:43:30;;;;;;;;;;;;;;;5.25;76.86;95546.97;5116801;28;1294;-49
2021/12/17 12:45:56;;;;;;;;;;;;;;;5.17;77.24;95554.63;5117011;27;1983;-49
2021/12/17 12:48:39;;;;;;;;;;;;;;;5.09;78.17;95543.78;5117072;27;1080;-48
2021/12/17 12:51:17;;;;;;;;;;;;;;;5.16;77.66;95552.09;5117112;27;957;-49
2021/12/17 12:54:06;;;;;;;;;;;;;;;5.24;76.90;95553.22;5116744;28;1025;-48
2021/12/17 12:56:32;;;;;;;;;;;;;;;5.40;76.96;95563.47;5116627;28;1027;-48
2021/12/17 12:58:58;;;;;;;;;;;;;;;5.45;76.55;95563.13;5116938;27;1008;-49
2021/12/17 13:01:25;;;;;;;;;;;;;;;5.39;77.33;95576.88;5116809;28;1069;-49
2021/12/17 13:03:51;;;;;;;;;;;;;;;5.36;76.67;95585.03;5116776;28;1051;-48
2021/12/17 13:06:18;;;;;;;;;;;;;;;5.35;76.65;95573.59;5116602;28;1906;-49
2021/12/17 13:08:54;;;;;;;;;;;;;;;5.28;77.16;95573.22;5116504;28;1127;-48
2021/12/17 13:11:21;;;;;;;;;;;;;;;5.37;77.00;95570.81;5116690;28;1035;-49
2021/12/17 13:13:53;;;;;;;;;;;;;;;5.30;77.26;95583.72;5116357;28;1093;-49
2021/12/17 13:21:44;;;;;;;;;;;;;;;5.00;78.06;95618.69;5116560;28;984;-48
2021/12/17 13:24:23;;;;;;;;;;;;;;;4.88;78.78;95602.75;5116298;27;973;-48
2021/12/17 13:26:51;;;;;;;;;;;;;;;4.93;78.39;95610.34;5116159;28;1033;-48
2021/12/17 13:29:18;;;;;;;;;;;;;;;4.96;78.77;95615.44;5116200;28;1209;-48
2021/12/17 13:31:49;;;;;;;;;;;;;;;4.94;78.29;95616.53;5116287;28;968;-48
2021/12/17 13:34:17;;;;;;;;;;;;;;;4.97;78.86;95600.38;5115967;28;1033;-48
2021/12/17 13:36:52;;;;;;;;;;;;;;;4.85;79.90;95605.63;5115915;28;1032;-48
2021/12/17 13:39:18;;;;;;;;;;;;;;;4.84;79.32;95601.31;5115914;28;1032;-48
2021/12/17 13:41:45;;;;;;;;;;;;;;;4.83;78.59;95589.00;5115905;28;1277;-49
2021/12/17 13:44:26;;;;;;;;;;;;;;;4.82;76.90;95579.38;5115917;28;1032;-48
2021/12/17 13:46:52;;;;;;;;;;;;;;;4.87;76.55;95563.97;5116086;28;1134;-48
2021/12/17 13:49:19;;;;;;;;;;;;;;;4.91;74.87;95545.19;5115965;28;1024;-48
2021/12/17 13:51:45;;;;;;;;;;;;;;;4.81;74.62;95532.63;5114721;28;1000;-48
2021/12/17 13:54:11;;;;;;;;;;;;;;;4.82;74.86;95534.34;5115322;28;1093;-48
2021/12/17 13:56:37;;;;;;;;;;;;;;;4.77;74.43;95541.78;5115777;28;1035;-48
2021/12/17 13:59:03;;;;;;;;;;;;;;;4.79;74.24;95531.91;5115588;28;968;-48
2021/12/17 14:01:29;;;;;;;;;;;;;;;4.78;72.41;95538.19;5115521;28;1053;-48
2021/12/17 14:03:55;;;;;;;;;;;;;;;4.86;71.68;95530.50;5115678;28;1047;-49
2021/12/17 14:06:24;;;;;;;;;;;;;;;4.83;70.06;95522.78;5115501;28;1917;-49
2021/12/17 14:08:53;;;;;;;;;;;;;;;4.87;69.34;95516.28;5115228;28;1056;-49
2021/12/17 14:11:20;;;;;;;;;;;;;;;4.91;67.82;95527.47;5115547;28;969;-49
2021/12/17 14:13:46;;;;;;;;;;;;;;;4.84;67.01;95531.59;5115179;28;1037;-49
2021/12/17 14:16:14;;;;;;;;;;;;;;;4.83;67.00;95535.19;5115384;28;1047;-49
2021/12/17 14:18:41;;;;;;;;;;;;;;;4.78;67.01;95543.50;5114989;28;1096;-49
2021/12/17 14:21:07;;;;;;;;;;;;;;;4.77;67.94;95554.19;5114899;28;1093;-49
2021/12/17 14:23:38;;;;;;;;;;;;;;;4.84;67.51;95558.91;5115217;28;1053;-49
2021/12/17 14:26:05;;;;;;;;;;;;;;;4.85;67.60;95565.03;5115076;28;1980;-49
2021/12/17 14:28:36;;;;;;;;;;;;;;;4.96;67.86;95566.91;5114876;28;1048;-49
2021/12/17 14:31:02;;;;;;;;;;;;;;;4.93;67.30;95562.66;5114777;28;1995;-48
2021/12/17 14:33:36;;;;;;;;;;;;;;;4.90;67.68;95557.59;5114686;28;1038;-49
2021/12/17 14:36:18;;;;;;;;;;;;;;;4.81;67.80;95539.75;5114994;28;1036;-48
2021/12/17 14:38:52;;;;;;;;;;;;;;;4.73;68.01;95539.50;5114798;28;1040;-49
2021/12/17 14:41:22;;;;;;;;;;;;;;;4.69;68.31;95537.06;5114596;28;1270;-49
2021/12/17 14:43:57;;;;;;;;;;;;;;;4.67;66.84;95535.50;5114836;28;1040;-49
2021/12/17 14:46:26;;;;;;;;;;;;;;;4.71;67.39;95550.19;5114551;28;1913;-49
2021/12/17 15:05:11;;;;;;;;;;;;;;;4.62;65.66;95533.19;5114408;28;1976;-49
2021/12/17 15:07:37;;;;;;;;;;;;;;;4.69;65.07;95541.53;5114107;28;1049;-49
2021/12/17 15:10:05;;;;;;;;;;;;;;;4.76;64.78;95556.00;5114347;28;1056;-49
2021/12/17 15:15:06;;;;;;;;;;;;;;;4.77;65.41;95557.69;5114491;28;1051;-49
2021/12/17 15:17:32;;;;;;;;;;;;;;;4.80;64.94;95561.88;5114485;28;966;-49
2021/12/17 15:19:59;;;;;;;;;;;;;;;4.70;65.29;95561.75;5114108;28;984;-49
2021/12/17 15:22:25;;;;;;;;;;;;;;;4.67;64.74;95554.88;5114170;28;1000;-49
2021/12/17 15:24:51;;;;;;;;;;;;;;;4.72;64.41;95551.03;5114292;28;1976;-49
2021/12/17 15:27:17;;;;;;;;;;;;;;;4.65;63.89;95558.63;5114351;28;1062;-49
2021/12/17 15:29:43;;;;;;;;;;;;;;;4.51;65.38;95562.28;5113872;28;1216;-49
2021/12/17 15:32:09;;;;;;;;;;;;;;;4.49;65.66;95558.91;5114243;28;1063;-49
2021/12/17 15:34:35;;;;;;;;;;;;;;;4.48;65.16;95558.06;5114151;28;969;-49
2021/12/17 15:37:01;;;;;;;;;;;;;;;4.60;64.99;95551.00;5114119;28;968;-49
2021/12/17 15:39:27;;;;;;;;;;;;;;;4.53;65.17;95554.22;5114138;28;987;-49
2021/12/17 15:41:53;;;;;;;;;;;;;;;4.45;65.56;95555.63;5113705;28;1127;-49
2021/12/17 15:44:20;;;;;;;;;;;;;;;4.50;64.90;95548.19;5114168;28;1044;-49
2021/12/17 15:46:46;;;;;;;;;;;;;;;4.54;65.25;95550.63;5113974;28;1906;-49
2021/12/17 15:49:13;;;;;;;;;;;;;;;4.62;64.62;95548.25;5113908;28;1119;-49
2021/12/17 15:51:39;;;;;;;;;;;;;;;4.66;64.22;95553.19;5114022;28;965;-49
2021/12/17 15:54:05;;;;;;;;;;;;;;;4.68;64.54;95550.41;5113800;28;1029;-48
2021/12/17 15:56:32;;;;;;;;;;;;;;;4.56;64.96;95552.19;5114027;28;1047;-48
2021/12/17 15:58:58;;;;;;;;;;;;;;;4.45;66.02;95555.63;5113703;28;1897;-48
2021/12/17 16:01:24;;;;;;;;;;;;;;;4.41;66.32;95556.81;5113789;28;1885;-49
2021/12/17 16:03:50;;;;;;;;;;;;;;;4.38;66.52;95561.50;5113568;28;925;-49
2021/12/17 16:06:16;;;;;;;;;;;;;;;4.35;66.10;95572.31;5113728;28;1906;-48
2021/12/17 16:08:48;;;;;;;;;;;;;;;4.32;66.53;95570.72;5113746;28;1059;-48
2021/12/17 16:22:01;;;;;;;;;;;;;;;4.26;67.55;95579.97;5117536;28;1048;-48
2021/12/17 16:24:27;;;;;;;;;;;;;;;4.21;68.15;95581.25;5117214;28;1995;-48
2021/12/17 16:26:56;;;;;;;;;;;;;;;4.24;68.25;95584.53;5117545;28;1040;-48
2021/12/17 16:29:23;;;;;;;;;;;;;;;4.24;68.01;95584.53;5117245;28;1252;-48
2021/12/17 16:31:49;;;;;;;;;;;;;;;4.17;68.87;95577.97;5117175;28;1181;-48
2021/12/17 16:34:15;;;;;;;;;;;;;;;4.21;68.20;95582.13;5117884;28;1001;-48
2021/12/17 16:36:42;;;;;;;;;;;;;;;4.19;68.44;95578.75;5116917;28;1108;-48
2021/12/17 16:39:09;;;;;;;;;;;;;;;4.10;68.17;95574.97;5117321;28;1043;-49
2021/12/17 16:41:35;;;;;;;;;;;;;;;4.18;68.00;95569.09;5117078;28;1084;-49
2021/12/17 16:44:05;;;;;;;;;;;;;;;4.09;68.32;95575.91;5117212;28;1073;-49
2021/12/17 16:49:04;;;;;;;;;;;;;;;4.01;67.33;95578.25;5117209;28;1008;-48
2021/12/17 16:51:30;;;;;;;;;;;;;;;4.07;66.83;95583.09;5116633;28;1021;-48
2021/12/17 16:53:57;;;;;;;;;;;;;;;3.99;67.45;95588.13;5116896;28;1043;-48